Terminal Aerodrome Forecast
Issued by NWS

Home | Current Version | Previous Version | Text Only | Print | Product List | Glossary On
Versions: 1 2 3 4 5 6 7 8 9 10 11 12 13 14 15 16 17 18 19
000
FTUS44 KOHX 241724
TAFCKV
TAF
KCKV 241724Z 2418/2518 18014G23KT P6SM BKN040 BKN100
     FM242300 17009G17KT P6SM BKN045
     FM250300 17011KT P6SM BKN070 WS020/18040KT
     FM251300 17013G23KT P6SM -SHRA VCTS OVC070CB=

USA.gov is the U.S. government's official web portal to all federal, state and local government web resources and services.